Corona Range LRC Data

Date Time Air Temperature Relative Humidity Dewpoint Windchill Heat Index Wind Speed Wind Dir. Rain Solar Radiation Soil Temperature
2m 2m 3m 3m 10cm
US/Mountain F % F F F MPH deg in MJ/m^2 F
max avg avg
2021-06-11 00:05:00 75.0 8.9 12.0 75.0 75.0 10.1 13.1 10.8 230.2 224.9 0.00 0.0000000 82.5
2021-06-11 00:10:00 74.5 9.1 12.1 74.5 74.5 10.5 12.2 10.1 235.1 231.6 0.00 0.0000000 82.3
2021-06-11 00:15:00 73.5 9.6 12.7 73.5 73.5 10.5 11.7 9.9 234.8 238.8 0.00 0.0000000 82.3
2021-06-11 00:20:00 72.2 10.0 12.6 72.2 72.2 11.2 11.5 9.7 221.9 229.3 0.00 0.0000000 82.1
2021-06-11 00:25:00 72.5 9.6 12.0 72.5 72.5 10.3 12.4 10.5 226.3 225.4 0.00 0.0000000 82.1
2021-06-11 00:30:00 73.1 9.3 11.7 73.1 73.1 10.3 12.6 11.3 222.5 221.7 0.00 0.0000000 82.0
2021-06-11 00:35:00 72.8 9.3 11.4 72.8 72.8 8.5 11.2 9.8 219.5 224.0 0.00 0.0000000 81.9
2021-06-11 00:40:00 72.5 9.3 11.2 72.5 72.5 9.4 11.0 9.5 227.2 226.4 0.00 0.0000000 81.8
2021-06-11 00:45:00 72.1 9.4 11.2 72.1 72.1 9.9 10.8 9.5 249.6 231.2 0.00 0.0000000 81.6
2021-06-11 00:50:00 71.2 9.8 11.3 71.2 71.2 7.1 10.3 8.8 236.4 235.6 0.00 0.0000000 81.6
2021-06-11 00:55:00 69.6 10.1 10.8 69.6 69.6 5.8 8.3 7.0 249.9 250.1 0.00 0.0000000 81.4
2021-06-11 01:00:00 69.3 10.1 10.4 69.3 69.3 5.8 7.4 6.0 278.4 259.9 0.00 0.0000000 81.4
2021-06-11 01:05:00 68.3 10.6 10.9 68.3 68.3 7.1 7.1 6.1 259.8 268.6 0.00 0.0000000 81.3
2021-06-11 01:10:00 68.6 10.0 9.8 68.6 68.6 6.7 8.0 6.7 267.5 261.3 0.00 0.0000000 81.1
2021-06-11 01:15:00 69.3 9.6 9.5 69.3 69.3 6.7 7.6 6.7 252.7 257.5 0.00 0.0000000 81.0
2021-06-11 01:20:00 69.5 9.5 9.4 69.5 69.5 6.5 7.1 6.3 255.1 258.1 0.00 0.0000000 80.9
2021-06-11 01:25:00 69.3 9.6 9.4 69.3 69.3 5.3 6.3 5.8 249.4 250.4 0.00 0.0000000 80.8
2021-06-11 01:30:00 69.0 9.7 9.3 69.0 69.0 5.5 5.8 5.3 260.1 247.3 0.00 0.0000000 80.7
2021-06-11 01:35:00 68.8 9.7 9.2 68.8 68.8 4.7 5.5 5.1 270.8 249.9 0.00 0.0000000 80.7
2021-06-11 01:40:00 67.5 10.6 10.3 67.5 67.5 3.5 5.3 3.8 279.9 276.6 0.00 0.0000000 80.5
2021-06-11 01:45:00 66.1 11.0 10.1 66.1 66.1 4.4 5.1 4.4 278.6 267.0 0.00 0.0000000 80.5
2021-06-11 01:50:00 66.0 11.1 10.1 66.0 66.0 3.5 4.2 3.9 261.5 265.8 0.00 0.0000000 80.4
2021-06-11 01:55:00 66.2 11.0 10.1 66.2 66.2 4.2 4.6 3.8 290.2 289.7 0.00 0.0000000 80.3
2021-06-11 02:00:00 67.1 10.7 10.2 67.1 67.1 4.0 4.9 4.2 294.4 277.2 0.00 0.0000000 80.1
2021-06-11 02:05:00 67.6 10.9 11.0 67.6 67.6 3.3 3.8 3.6 281.1 277.5 0.00 0.0000000 80.0
2021-06-11 02:10:00 68.3 10.8 11.2 68.3 68.3 3.1 4.0 3.2 271.0 286.2 0.00 0.0000000 79.9
2021-06-11 02:15:00 68.3 11.1 11.8 68.3 68.3 5.1 5.1 3.7 234.2 280.6 0.00 0.0000000 79.8
2021-06-11 02:20:00 68.5 11.2 12.2 68.5 68.5 5.1 6.5 5.2 278.8 281.5 0.00 0.0000000 79.7
2021-06-11 02:25:00 68.3 11.4 12.5 68.3 68.3 4.9 6.3 5.5 265.6 275.3 0.00 0.0000000 79.6
2021-06-11 02:30:00 68.6 11.1 12.2 68.6 68.6 6.0 6.3 5.2 299.3 283.0 0.00 0.0000000 79.5
2021-06-11 02:35:00 68.5 11.2 12.3 68.5 68.5 4.6 5.5 4.9 265.6 279.6 0.00 0.0000000 79.4
2021-06-11 02:40:00 68.1 11.6 12.7 68.1 68.1 4.9 5.6 4.9 274.8 279.9 0.00 0.0000000 79.3
2021-06-11 02:45:00 67.5 11.8 12.8 67.5 67.5 5.1 5.6 5.0 262.6 274.8 0.00 0.0000000 79.2
2021-06-11 02:50:00 67.3 11.9 12.7 67.3 67.3 5.6 6.3 5.3 263.0 266.9 0.00 0.0000000 79.1
2021-06-11 02:55:00 67.5 11.8 12.6 67.5 67.5 5.8 7.1 5.8 271.2 260.0 0.00 0.0000000 79.0
2021-06-11 03:00:00 68.2 11.5 12.6 68.2 68.2 6.2 7.8 6.6 258.7 261.0 0.00 0.0000000 78.9
2021-06-11 03:05:00 68.5 11.4 12.6 68.5 68.5 7.6 8.5 7.1 250.0 258.4 0.00 0.0000000 78.8
2021-06-11 03:10:00 68.9 11.4 12.9 68.9 68.9 6.9 8.5 7.6 244.1 258.0 0.00 0.0000000 78.7
2021-06-11 03:15:00 68.3 11.7 13.1 68.3 68.3 7.2 8.1 6.9 254.2 257.2 0.00 0.0000000 78.6
2021-06-11 03:20:00 68.0 11.9 13.2 68.0 68.0 7.1 8.5 7.2 246.0 261.1 0.00 0.0000000 78.5
2021-06-11 03:25:00 67.9 11.9 13.2 67.9 67.9 7.8 8.8 7.6 237.5 257.6 0.00 0.0000000 78.4
2021-06-11 03:30:00 68.1 11.9 13.4 68.1 68.1 8.5 9.6 8.2 239.7 259.8 0.00 0.0000000 78.3
2021-06-11 03:35:00 68.6 11.8 13.6 68.6 68.6 9.9 10.1 8.8 249.8 253.0 0.00 0.0000000 78.2
2021-06-11 03:40:00 68.9 11.8 13.8 68.9 68.9 10.1 11.2 9.4 272.9 254.3 0.00 0.0000000 78.1
2021-06-11 03:45:00 68.8 12.0 14.1 68.8 68.8 9.0 10.8 8.9 265.8 260.5 0.00 0.0000000 78.0
2021-06-11 03:50:00 68.8 12.2 14.5 68.8 68.8 9.4 10.5 9.1 291.8 261.5 0.00 0.0000000 77.9
2021-06-11 03:55:00 68.5 12.6 14.9 68.5 68.5 9.2 10.3 8.4 249.6 259.8 0.00 0.0000000 77.8
2021-06-11 04:00:00 68.2 12.8 15.1 68.2 68.2 8.5 9.9 8.2 265.7 261.0 0.00 0.0000000 77.7
2021-06-11 04:05:00 68.2 12.9 15.3 68.2 68.2 7.6 10.3 8.2 260.3 255.0 0.00 0.0000000 77.6
2021-06-11 04:10:00 68.1 13.1 15.6 68.1 68.1 7.4 9.4 8.0 261.1 251.4 0.00 0.0000000 77.5
2021-06-11 04:15:00 67.8 13.2 15.4 67.8 67.8 6.7 9.7 7.8 243.9 252.8 0.00 0.0000000 77.5
2021-06-11 04:20:00 67.3 13.5 15.6 67.3 67.3 8.1 8.8 7.5 242.4 248.6 0.00 0.0000000 77.4
2021-06-11 04:25:00 66.9 13.6 15.5 66.9 66.9 8.8 9.6 7.8 241.9 245.0 0.00 0.0000000 77.3
2021-06-11 04:30:00 66.8 13.9 15.8 66.8 66.8 7.2 8.3 7.1 246.8 235.9 0.00 0.0000000 77.2
2021-06-11 04:35:00 65.8 14.4 15.9 65.8 65.8 7.1 7.8 6.7 223.9 230.0 0.00 0.0000000 77.1
2021-06-11 04:40:00 65.4 14.7 16.1 65.4 65.4 7.1 8.8 7.3 235.5 231.5 0.00 0.0000000 77.0
2021-06-11 04:45:00 65.3 14.8 16.2 65.3 65.3 6.5 8.1 7.0 224.5 227.9 0.00 0.0000000 76.9
2021-06-11 04:50:00 65.6 14.6 16.1 65.6 65.6 8.5 8.5 6.9 224.9 225.2 0.00 0.0000000 76.9
2021-06-11 04:55:00 66.0 14.8 16.7 66.0 66.0 5.6 9.0 6.9 225.1 234.7 0.00 0.0000000 76.8
2021-06-11 05:00:00 66.9 14.5 16.9 66.9 66.9 8.5 11.7 7.7 255.8 244.5 0.00 0.0000000 76.7
2021-06-11 05:05:00 69.1 13.6 17.2 69.1 69.1 9.4 14.6 11.0 242.1 258.8 0.00 0.0000000 76.6
2021-06-11 05:10:00 68.8 13.7 17.1 68.8 68.8 12.6 14.9 11.2 265.7 266.2 0.00 0.0000000 76.6
2021-06-11 05:15:00 68.8 13.9 17.4 68.8 68.8 11.9 13.3 10.8 256.6 261.6 0.00 0.0000000 76.5
2021-06-11 05:20:00 68.6 13.9 17.3 68.6 68.6 12.4 14.9 12.1 262.0 260.0 0.00 0.0000000 76.4
2021-06-11 05:25:00 67.6 14.6 17.7 67.6 67.6 8.7 13.9 9.2 249.5 255.8 0.00 0.0000000 76.3
2021-06-11 05:30:00 67.6 14.6 17.6 67.6 67.6 12.2 15.1 10.3 240.2 258.2 0.00 0.0000000 76.3
2021-06-11 05:35:00 67.0 14.9 17.6 67.0 67.0 9.2 11.9 9.0 254.9 252.4 0.00 0.0000000 76.2
2021-06-11 05:40:00 65.9 15.6 17.8 65.9 65.9 8.1 9.0 8.0 243.7 246.5 0.00 0.0000000 76.1
2021-06-11 05:45:00 65.6 15.6 17.5 65.6 65.6 10.1 10.1 8.4 243.6 243.6 0.00 0.0000000 76.0
2021-06-11 05:50:00 65.3 16.0 18.0 65.3 65.3 6.9 9.9 7.6 249.1 248.8 0.00 0.0000000 76.0
2021-06-11 05:55:00 64.3 16.7 18.1 64.3 64.3 6.5 8.1 6.8 246.0 246.7 0.00 0.0000000 75.9
2021-06-11 06:00:00 64.0 16.6 17.7 64.0 64.0 8.1 8.3 7.3 239.7 245.2 0.00 0.0004535 75.8
2021-06-11 06:05:00 64.5 16.3 17.7 64.5 64.5 7.6 10.1 8.1 255.6 242.1 0.00 0.0030749 75.8
2021-06-11 06:10:00 64.9 15.9 17.5 64.9 64.9 8.0 9.2 8.0 237.1 242.4 0.00 0.0030357 75.7
2021-06-11 06:15:00 65.9 15.5 17.7 65.9 65.9 7.2 10.1 8.3 253.0 242.6 0.00 0.0104828 75.6
2021-06-11 06:20:00 65.5 16.1 18.2 65.5 65.5 6.7 8.5 7.0 243.7 239.3 0.00 0.0122215 75.6
2021-06-11 06:25:00 65.4 16.4 18.5 65.4 65.4 7.4 8.0 6.8 234.7 243.7 0.00 0.0148704 75.5
2021-06-11 06:30:00 67.3 15.2 18.4 67.3 67.3 9.0 11.0 8.3 256.0 254.3 0.00 0.0183113 75.4
2021-06-11 06:35:00 68.9 14.5 18.5 68.9 68.9 7.8 12.2 9.5 257.4 258.7 0.00 0.0211594 75.4
2021-06-11 06:40:00 69.7 14.1 18.5 69.7 69.7 9.6 12.4 10.0 265.0 256.1 0.00 0.0235458 75.3
2021-06-11 06:45:00 70.3 13.7 18.3 70.3 70.3 11.7 13.7 10.5 245.8 257.6 0.00 0.0260701 75.2
2021-06-11 06:50:00 70.8 13.7 18.8 70.8 70.8 7.4 13.3 10.4 267.4 257.3 0.00 0.0286966 75.2
2021-06-11 06:55:00 71.5 13.2 18.5 71.5 71.5 14.2 14.2 10.9 256.7 255.2 0.00 0.0314721 75.1
2021-06-11 07:00:00 72.0 13.1 18.7 72.0 72.0 13.3 15.6 11.5 239.3 261.5 0.00 0.0343670 75.1
2021-06-11 07:05:00 72.3 12.9 18.5 72.3 72.3 14.0 15.1 11.8 275.8 261.0 0.00 0.0373760 75.0
2021-06-11 07:10:00 72.7 12.8 18.7 72.7 72.7 11.5 14.6 12.3 270.1 259.2 0.00 0.0403798 74.9
2021-06-11 07:15:00 73.2 12.6 18.7 73.2 73.2 10.1 14.4 11.6 253.3 262.7 0.00 0.0433581 74.9
2021-06-11 07:20:00 73.7 12.3 18.5 73.7 73.7 11.5 15.3 12.9 243.0 263.8 0.00 0.0465733 74.8
2021-06-11 07:25:00 74.2 12.2 18.6 74.2 74.2 11.0 14.0 11.8 266.0 266.1 0.00 0.0497161 74.8
2021-06-11 07:30:00 74.5 11.8 18.0 74.5 74.5 14.7 15.5 12.5 247.0 266.7 0.00 0.0528454 74.7
2021-06-11 07:35:00 74.8 11.8 18.4 74.8 74.8 9.4 17.4 13.0 257.7 273.3 0.00 0.0561869 74.7
2021-06-11 07:40:00 75.1 11.4 17.8 75.1 75.1 15.6 18.5 12.7 251.7 267.0 0.00 0.0591642 74.6
2021-06-11 07:45:00 75.4 11.5 18.2 75.4 75.4 9.7 16.0 12.0 249.3 265.3 0.00 0.0624596 74.6
2021-06-11 07:50:00 75.6 10.7 16.8 75.6 75.6 16.2 16.9 12.7 247.1 269.2 0.00 0.0656390 74.6
2021-06-11 07:55:00 75.9 10.6 16.8 75.9 75.9 14.6 16.7 12.1 263.8 272.0 0.00 0.0689712 74.5
2021-06-11 08:00:00 76.1 10.4 16.4 76.1 76.1 13.9 18.3 13.4 241.4 269.6 0.00 0.0723781 74.5
2021-06-11 08:05:00 76.5 10.3 16.6 76.5 76.5 11.7 17.2 13.1 263.6 271.5 0.00 0.0758101 74.5
2021-06-11 08:10:00 76.7 10.0 16.0 76.7 76.7 12.1 18.1 12.3 268.0 275.0 0.00 0.0790942 74.5
2021-06-11 08:15:00 77.6 9.9 16.4 77.6 77.6 9.9 14.0 10.7 296.3 273.5 0.00 0.0826055 74.5
2021-06-11 08:20:00 77.5 9.9 16.3 77.5 77.5 9.9 17.2 12.7 204.4 269.6 0.00 0.0857821 74.5
2021-06-11 08:25:00 77.8 9.4 15.3 77.8 77.8 15.6 20.3 13.6 263.9 271.6 0.00 0.0892776 74.5
2021-06-11 08:30:00 77.9 9.3 15.2 77.9 77.9 11.2 17.1 13.2 284.0 266.3 0.00 0.0925798 74.5
2021-06-11 08:35:00 78.1 9.4 15.7 78.1 78.1 11.2 19.2 12.9 304.1 285.0 0.00 0.0958306 74.5
2021-06-11 08:40:00 78.7 9.1 15.4 78.7 78.7 8.1 14.6 11.8 288.2 283.1 0.00 0.0989771 74.5
2021-06-11 08:45:00 79.0 8.9 15.0 79.0 79.0 11.5 16.9 13.2 280.0 278.4 0.00 0.1021714 74.5
2021-06-11 08:50:00 79.2 8.9 15.3 79.2 79.2 15.5 16.7 13.0 261.8 281.6 0.00 0.1053538 74.6
2021-06-11 08:55:00 79.5 8.8 15.1 79.5 79.5 14.7 16.0 12.5 285.3 280.1 0.00 0.1084276 74.6
2021-06-11 09:00:00 79.7 8.7 14.9 79.7 79.7 15.8 15.8 11.9 262.2 286.7 0.00 0.1117570 74.6
2021-06-11 09:05:00 79.7 8.5 14.4 79.7 79.7 14.2 16.9 13.7 293.3 270.2 0.00 0.1152747 74.6
2021-06-11 09:10:00 80.7 8.4 14.9 80.7 80.7 15.6 15.6 11.2 262.0 270.7 0.00 0.1186483 74.7
2021-06-11 09:15:00 80.4 8.3 14.6 80.4 80.4 13.3 16.2 12.8 262.7 266.7 0.00 0.1214999 74.7
2021-06-11 09:20:00 80.7 8.1 14.3 80.7 80.7 13.1 15.8 12.3 305.6 285.6 0.00 0.1246890 74.8
2021-06-11 09:25:00 81.6 8.2 15.1 81.6 81.6 10.8 16.5 11.1 279.8 278.1 0.00 0.1276859 74.8
2021-06-11 09:30:00 82.1 7.9 14.5 82.1 82.1 10.5 14.7 10.8 298.4 279.2 0.00 0.1302767 74.9
2021-06-11 09:35:00 81.1 7.8 13.6 81.1 81.1 13.1 15.3 11.6 282.9 289.4 0.00 0.1327850 75.0
2021-06-11 09:40:00 83.1 7.5 14.1 83.1 83.1 10.5 13.5 10.0 258.2 276.4 0.00 0.1361494 75.0
2021-06-11 09:45:00 82.1 7.9 14.6 82.1 82.1 11.7 14.6 11.1 271.9 276.6 0.00 0.1378942 75.1
2021-06-11 09:50:00 81.8 7.9 14.5 81.8 81.8 11.9 13.9 10.2 286.8 284.0 0.00 0.1409242 75.2
2021-06-11 09:55:00 82.9 8.0 15.5 82.9 82.9 8.1 14.2 9.3 280.9 274.4 0.00 0.1436417 75.3
2021-06-11 10:00:00 82.7 7.3 13.4 82.7 82.7 9.6 14.9 10.0 287.6 288.5 0.00 0.1460214 75.4
2021-06-11 10:05:00 82.6 7.5 13.7 82.6 82.6 11.3 13.0 10.1 286.5 284.1 0.00 0.1486911 75.5
2021-06-11 10:10:00 83.3 7.1 13.2 83.3 83.3 9.7 17.2 11.2 230.0 267.4 0.00 0.1518225 75.6
2021-06-11 10:15:00 84.2 6.5 11.9 84.2 84.2 12.6 15.8 10.6 258.3 270.2 0.00 0.1542632 75.7
2021-06-11 10:20:00 83.5 6.9 12.8 83.5 83.5 7.8 14.6 10.0 276.0 258.5 0.00 0.1564420 75.8
2021-06-11 10:25:00 83.9 7.1 13.6 83.9 83.9 7.4 12.6 9.0 284.0 264.9 0.00 0.1589591 76.0
2021-06-11 10:30:00 84.0 7.0 13.3 84.0 84.0 11.3 15.1 9.2 269.6 285.3 0.00 0.1611855 76.1
2021-06-11 10:35:00 84.0 6.8 12.8 84.0 84.0 11.3 14.4 9.8 311.1 278.5 0.00 0.1629920 76.2
2021-06-11 10:40:00 84.3 6.8 13.0 84.3 84.3 9.4 14.2 9.5 263.8 273.9 0.00 0.1635596 76.4
2021-06-11 10:45:00 84.9 6.2 11.2 84.9 84.9 10.5 16.9 11.4 273.2 280.6 0.00 0.1675490 76.5
2021-06-11 10:50:00 85.9 6.2 11.8 85.9 85.9 11.3 14.4 9.0 268.4 271.0 0.00 0.1693141 76.6
2021-06-11 10:55:00 85.8 6.1 11.6 85.8 85.8 11.2 15.1 11.0 267.8 271.1 0.00 0.1715273 76.8
2021-06-11 11:00:00 85.9 6.2 11.9 85.9 85.9 11.0 11.7 9.0 291.2 298.9 0.00 0.1740422 77.0
2021-06-11 11:05:00 85.9 6.0 11.2 85.9 85.9 7.6 15.5 10.8 230.5 270.9 0.00 0.1723772 77.1
2021-06-11 11:10:00 85.8 6.0 11.2 85.8 85.8 6.5 12.4 8.4 245.6 267.4 0.00 0.1772357 77.3
2021-06-11 11:15:00 85.4 6.8 13.7 85.4 85.4 6.5 12.8 8.8 266.3 291.5 0.00 0.1778631 77.5
2021-06-11 11:20:00 85.9 6.2 12.1 85.9 85.9 6.7 13.5 9.8 297.1 287.6 0.00 0.1768664 77.7
2021-06-11 11:25:00 86.5 6.3 12.6 86.5 86.5 4.4 12.2 9.1 325.0 299.4 0.00 0.1547138 77.9
2021-06-11 11:30:00 86.8 5.8 11.2 86.8 86.8 12.1 15.8 9.4 299.9 296.6 0.00 0.1629280 78.0
2021-06-11 11:35:00 87.0 5.8 11.3 87.0 87.0 9.2 14.4 9.8 279.4 265.6 0.00 0.1833079 78.2
2021-06-11 11:40:00 87.6 5.3 9.8 87.6 87.6 7.1 13.7 7.5 271.6 300.0 0.00 0.1875801 78.5
2021-06-11 11:45:00 89.0 5.7 12.0 89.0 89.0 13.1 13.1 8.8 280.2 283.4 0.00 0.1874038 78.7
2021-06-11 11:50:00 88.7 5.7 12.1 88.7 88.7 13.0 13.0 10.3 315.7 291.1 0.00 0.1880588 78.9
2021-06-11 11:55:00 87.7 5.5 10.4 87.7 87.7 12.6 15.3 10.8 209.7 252.1 0.00 0.1906826 79.1
2021-06-11 12:00:00 88.8 4.6 7.3 88.8 88.8 13.9 16.7 12.9 220.9 229.9 0.00 0.1950201 79.3
2021-06-11 12:05:00 89.8 4.6 7.8 89.8 89.8 15.3 16.9 12.2 249.9 241.3 0.00 0.1899213 79.5
2021-06-11 12:10:00 89.4 4.7 8.0 89.4 89.4 15.5 16.7 13.6 264.8 262.7 0.00 0.1970355 79.7
2021-06-11 12:15:00 90.4 4.5 7.9 90.4 90.4 11.9 15.6 11.7 264.2 257.9 0.00 0.1995870 79.9
2021-06-11 12:20:00 90.4 4.1 5.6 90.4 90.4 11.3 17.6 11.5 274.7 264.4 0.00 0.1972931 80.1
2021-06-11 12:25:00 89.8 4.3 6.5 89.8 89.8 12.6 14.7 9.2 262.6 281.0 0.00 0.1968786 80.4
2021-06-11 12:30:00 90.1 4.1 5.6 90.1 90.1 10.6 17.4 13.7 277.5 256.9 0.00 0.1972940 80.6
2021-06-11 12:35:00 90.5 3.9 4.9 90.5 90.5 5.1 13.7 9.0 245.7 260.1 0.00 0.1987333 80.8
2021-06-11 12:40:00 89.8 4.0 5.0 89.8 89.8 11.3 15.1 10.1 251.1 242.3 0.00 0.1991858 81.0
2021-06-11 12:45:00 90.1 4.4 7.2 90.1 90.1 8.1 13.5 10.3 285.2 245.0 0.00 0.1984743 81.3
2021-06-11 12:50:00 90.6 3.8 4.7 90.6 90.6 6.0 15.6 10.4 300.5 282.9 0.00 0.1978316 81.5
2021-06-11 12:55:00 91.5 3.4 2.8 91.5 91.5 12.4 13.1 9.6 265.2 266.8 0.00 0.1988101 81.7
2021-06-11 13:00:00 91.5 3.8 5.0 91.5 91.5 7.2 15.3 10.8 275.1 257.7 0.00 0.1945841 81.9
2021-06-11 13:05:00 92.4 3.3 2.3 92.4 92.4 10.8 13.1 9.8 265.8 269.2 0.00 0.1949284 82.1
2021-06-11 13:10:00 91.9 3.4 2.9 91.9 91.9 11.5 15.5 10.3 260.7 274.3 0.00 0.1970097 82.4
2021-06-11 13:15:00 91.0 3.7 4.0 91.0 91.0 8.8 14.0 9.7 277.4 245.1 0.00 0.1983217 82.6
2021-06-11 13:20:00 90.5 3.9 5.2 90.5 90.5 5.8 15.6 10.1 304.2 255.6 0.00 0.1884303 82.9
2021-06-11 13:25:00 91.5 3.8 4.8 91.5 91.5 10.6 14.6 9.2 206.5 221.5 0.00 0.1835947 83.1
2021-06-11 13:30:00 90.2 4.0 5.1 90.2 90.2 6.5 16.2 9.5 291.6 212.9 0.00 0.1664698 83.3
2021-06-11 13:35:00 90.5 3.8 4.4 90.5 90.5 3.3 12.8 6.0 303.0 328.4 0.00 0.1967184 83.5
2021-06-11 13:40:00 92.1 3.7 4.6 92.1 92.1 10.1 11.2 6.9 190.4 203.9 0.00 0.2022250 83.8
2021-06-11 13:45:00 93.2 3.6 5.2 93.2 93.2 9.7 13.7 11.1 272.0 219.2 0.00 0.1987392 84.0
2021-06-11 13:50:00 91.3 3.9 5.5 91.3 91.3 3.7 11.5 5.9 344.4 303.9 0.00 0.1962888 84.2
2021-06-11 13:55:00 92.2 3.6 4.1 92.2 92.2 15.1 18.5 10.2 207.8 201.3 0.00 0.1922793 84.4
2021-06-11 14:00:00 93.2 3.7 5.8 93.2 93.2 9.0 16.4 11.7 198.9 215.6 0.00 0.1872580 84.7
2021-06-11 14:05:00 92.6 3.4 3.1 92.6 92.6 8.3 16.2 11.5 243.4 204.0 0.00 0.1877928 84.9
2021-06-11 14:10:00 91.0 3.4 2.0 91.0 91.0 3.1 14.9 8.9 180.0 210.6 0.00 0.1941569 85.1
2021-06-11 14:15:00 92.0 3.7 4.8 92.0 92.0 15.5 15.5 5.8 209.9 218.3 0.00 0.1952169 85.3
2021-06-11 14:20:00 92.1 3.4 2.8 92.1 92.1 9.7 16.4 12.2 233.0 197.0 0.00 0.1934896 85.5
2021-06-11 14:25:00 92.4 3.4 3.4 92.4 92.4 10.5 12.1 9.0 145.1 211.1 0.00 0.1902358 85.7
2021-06-11 14:30:00 92.4 3.2 1.7 92.4 92.4 8.1 13.7 8.5 226.0 214.3 0.00 0.2064169 85.9
2021-06-11 14:35:00 92.7 3.0 0.9 92.7 92.7 13.3 16.5 9.3 228.0 230.9 0.00 0.1271892 86.2
2021-06-11 14:40:00 91.6 2.9 -0.8 91.6 91.6 9.6 15.1 11.1 191.7 207.5 0.00 0.0921883 86.4
2021-06-11 14:45:00 91.5 3.0 -0.2 91.5 91.5 4.7 7.6 4.8 147.7 188.4 0.00 0.0932672 86.6
2021-06-11 14:50:00 91.0 3.2 1.2 91.0 91.0 4.0 9.7 5.5 171.5 166.9 0.00 0.0844023 86.8
2021-06-11 14:55:00 91.0 3.3 1.6 91.0 91.0 3.8 5.5 3.5 165.0 196.4 0.00 0.0847662 87.0
2021-06-11 15:00:00 91.2 3.7 4.5 91.2 91.2 6.7 8.7 5.6 192.0 186.4 0.00 0.0889402 87.2
2021-06-11 15:05:00 91.1 3.7 4.0 91.1 91.1 9.4 9.4 6.9 153.1 175.0 0.00 0.1134678 87.3
2021-06-11 15:10:00 91.8 3.7 4.5 91.8 91.8 6.5 9.7 6.1 128.5 155.1 0.00 0.1020334 87.5
2021-06-11 15:15:00 92.6 3.7 5.4 92.6 92.6 4.0 6.2 3.4 195.5 167.3 0.00 0.1309962 87.7
2021-06-11 15:20:00 94.2 3.3 3.5 94.2 94.2 9.2 11.2 8.2 213.5 206.7 0.00 0.1721400 87.9
2021-06-11 15:25:00 94.0 3.2 2.9 94.0 94.0 7.4 15.1 9.5 179.9 165.8 0.00 0.2100453 88.0
2021-06-11 15:30:00 93.8 3.3 3.7 93.8 93.8 9.0 16.5 11.0 195.1 202.1 0.00 0.2131315 88.2
2021-06-11 15:35:00 94.5 2.9 1.1 94.5 94.5 12.6 15.5 9.9 176.8 187.1 0.00 0.1974807 88.3
2021-06-11 15:40:00 93.5 3.4 3.7 93.5 93.5 3.8 12.4 7.6 122.8 187.8 0.00 0.1605844 88.4
2021-06-11 15:45:00 94.0 3.1 2.2 94.0 94.0 3.7 11.5 5.5 2.9 254.9 0.00 0.1417359 88.5
2021-06-11 15:50:00 93.7 3.1 1.8 93.7 93.7 11.5 12.2 8.7 201.8 203.0 0.00 0.1602136 88.6
2021-06-11 15:55:00 94.0 3.1 2.2 94.0 94.0 8.8 11.3 8.1 192.8 233.8 0.00 0.1741504 88.8
2021-06-11 16:00:00 93.9 2.9 0.7 93.9 93.9 8.1 14.4 10.0 174.0 189.9 0.00 0.1919648 88.9
2021-06-11 16:05:00 94.0 3.1 2.5 94.0 94.0 3.7 13.1 6.9 262.9 234.7 0.00 0.1892651 89.0
2021-06-11 16:10:00 95.4 2.6 -0.4 95.4 95.4 14.7 14.7 10.4 229.3 236.1 0.00 0.1863367 89.1
2021-06-11 16:15:00 94.1 2.6 -1.3 94.1 94.1 9.0 16.9 11.6 261.0 253.6 0.00 0.1830628 89.2
2021-06-11 16:20:00 93.9 3.0 1.2 93.9 93.9 6.0 11.0 7.7 241.4 218.8 0.00 0.1753664 89.3
2021-06-11 16:25:00 95.2 2.7 -0.0 95.2 95.2 9.2 13.0 8.0 279.7 260.2 0.00 0.1678169 89.4
2021-06-11 16:30:00 95.1 2.8 0.4 95.1 95.1 7.8 9.9 5.6 160.3 241.5 0.00 0.1607046 89.5
2021-06-11 16:35:00 94.5 2.7 -0.5 94.5 94.5 13.9 17.8 13.5 217.6 205.2 0.00 0.1554472 89.6
2021-06-11 16:40:00 94.5 2.6 -1.0 94.5 94.5 11.2 15.1 10.8 175.7 217.4 0.00 0.1509836 89.8
2021-06-11 16:45:00 94.1 2.6 -1.5 94.1 94.1 6.0 13.9 8.5 170.3 158.4 0.00 0.1410790 89.9
2021-06-11 16:50:00 93.9 2.8 -0.1 93.9 93.9 10.5 12.1 6.2 228.2 186.6 0.00 0.1329143 90.0
2021-06-11 16:55:00 94.8 2.3 -3.4 94.8 94.8 15.3 16.0 9.7 220.1 210.8 0.00 0.1308457 90.1
2021-06-11 17:00:00 94.5 2.6 -1.6 94.5 94.5 16.7 16.7 11.5 154.3 191.0 0.00 0.1291104 90.2
2021-06-11 17:05:00 94.5 2.6 -1.3 94.5 94.5 9.7 14.9 12.0 165.7 187.5 0.00 0.1266262 90.3
2021-06-11 17:10:00 94.7 2.6 -1.2 94.7 94.7 11.7 14.4 10.4 237.4 229.8 0.00 0.1216086 90.4
2021-06-11 17:15:00 93.9 2.3 -4.1 93.9 93.9 10.1 14.0 10.7 225.9 242.4 0.00 0.1147579 90.5
2021-06-11 17:20:00 93.6 2.4 -3.4 93.6 93.6 1.5 9.7 5.0 255.3 234.9 0.00 0.0780379 90.6
2021-06-11 17:25:00 94.0 2.6 -1.6 94.0 94.0 4.7 7.4 4.7 233.3 263.9 0.00 0.0798702 90.8
2021-06-11 17:30:00 94.9 2.3 -3.7 94.9 94.9 12.2 16.4 10.9 225.5 238.4 0.00 0.1054249 90.8
2021-06-11 17:35:00 93.9 2.6 -2.0 93.9 93.9 4.4 14.0 10.0 298.1 217.6 0.00 0.0888256 90.9
2021-06-11 17:40:00 94.1 2.9 0.6 94.1 94.1 10.6 10.6 6.9 303.9 277.2 0.00 0.0895002 91.0
2021-06-11 17:45:00 92.4 2.6 -2.7 92.4 92.4 6.2 14.6 9.4 261.4 292.9 0.00 0.0658358 91.0
2021-06-11 17:50:00 92.1 3.2 1.7 92.1 92.1 7.6 9.9 7.0 296.6 293.8 0.00 0.0551285 91.1
2021-06-11 17:55:00 92.0 2.8 -1.3 92.0 92.0 8.3 11.9 8.4 275.0 288.6 0.00 0.0339161 91.2
2021-06-11 18:00:00 91.7 2.9 -1.0 91.7 91.7 9.4 12.1 9.5 284.4 269.6 0.00 0.0331770 91.2
2021-06-11 18:05:00 90.7 3.5 2.5 90.7 90.7 10.8 14.0 9.4 291.5 282.3 0.00 0.0276001 91.3
2021-06-11 18:10:00 90.5 3.4 1.9 90.5 90.5 8.5 10.8 8.1 296.9 288.1 0.00 0.0261297 91.3
2021-06-11 18:15:00 90.5 3.6 3.2 90.5 90.5 6.5 9.2 7.1 269.7 292.1 0.00 0.0291021 91.3
2021-06-11 18:20:00 90.6 3.4 2.2 90.6 90.6 8.7 9.2 6.8 278.9 269.2 0.00 0.0270073 91.3
2021-06-11 18:25:00 90.3 3.7 3.6 90.3 90.3 8.7 9.9 7.7 275.3 268.5 0.00 0.0218248 91.3
2021-06-11 18:30:00 89.7 3.9 4.2 89.7 89.7 10.6 11.5 8.6 287.6 289.8 0.00 0.0181306 91.3
2021-06-11 18:35:00 89.3 4.1 5.2 89.3 89.3 8.5 10.8 8.6 311.7 297.7 0.00 0.0158005 91.3
2021-06-11 18:40:00 89.0 4.1 4.9 89.0 89.0 7.6 11.3 8.7 319.6 312.8 0.00 0.0139332 91.3
2021-06-11 18:45:00 88.7 4.2 5.0 88.7 88.7 7.4 9.6 7.8 231.4 300.2 0.00 0.0123666 91.2
2021-06-11 18:50:00 88.4 4.3 5.7 88.4 88.4 6.3 9.2 6.0 295.8 297.4 0.00 0.0105794 91.3
2021-06-11 18:55:00 88.1 4.3 5.1 88.1 88.1 6.9 6.9 5.8 324.8 290.0 0.00 0.0093361 91.2
2021-06-11 19:00:00 88.0 4.4 5.9 88.0 88.0 5.8 7.8 6.4 282.4 289.7 0.00 0.0087118 91.1
2021-06-11 19:05:00 87.6 4.5 6.1 87.6 87.6 5.6 6.9 5.7 322.2 295.9 0.00 0.0087902 91.1
2021-06-11 19:10:00 87.5 4.4 5.4 87.5 87.5 7.2 7.2 5.6 297.2 292.0 0.00 0.0092782 91.0
2021-06-11 19:15:00 87.0 4.7 6.7 87.0 87.0 5.6 6.7 5.2 318.9 295.2 0.00 0.0091582 90.9
2021-06-11 19:20:00 86.6 5.0 7.7 86.6 86.6 4.6 5.6 4.8 294.4 296.3 0.00 0.0084785 90.8
2021-06-11 19:25:00 86.3 4.9 7.1 86.3 86.3 6.0 7.1 5.8 223.7 294.7 0.00 0.0074949 90.8
2021-06-11 19:30:00 86.7 5.0 7.7 86.7 86.7 6.2 8.8 7.1 331.4 306.4 0.00 0.0132121 90.7
2021-06-11 19:35:00 86.9 5.1 8.3 86.9 86.9 6.5 9.4 6.8 311.7 322.4 0.00 0.0157014 90.6
2021-06-11 19:40:00 87.0 5.2 9.0 87.0 87.0 4.2 7.6 5.3 341.5 331.5 0.00 0.0173297 90.5
2021-06-11 19:45:00 86.9 5.3 9.2 86.9 86.9 5.1 6.2 5.2 330.6 334.0 0.00 0.0135377 90.4
2021-06-11 19:50:00 86.6 5.3 9.1 86.6 86.6 5.3 5.6 4.9 327.1 341.3 0.00 0.0100802 90.3
2021-06-11 19:55:00 86.2 5.7 10.1 86.2 86.2 4.0 5.1 4.2 0.6 347.8 0.00 0.0067576 90.2
2021-06-11 20:00:00 85.3 5.9 10.2 85.3 85.3 4.2 4.9 4.1 6.5 4.6 0.00 0.0024348 90.1
2021-06-11 20:05:00 84.2 6.2 10.7 84.2 84.2 3.5 4.0 3.8 12.5 11.7 0.00 0.0008712 89.9
2021-06-11 20:10:00 83.4 6.4 10.7 83.4 83.4 3.8 4.0 3.7 19.5 13.5 0.00 0.0000000 89.8
2021-06-11 20:15:00 82.8 6.4 10.5 82.8 82.8 3.7 4.0 3.8 10.7 16.1 0.00 0.0000000 89.7
2021-06-11 20:20:00 82.6 6.5 10.5 82.6 82.6 4.2 4.2 3.9 0.6 3.3 0.00 0.0000000 89.6
2021-06-11 20:25:00 82.4 6.5 10.6 82.4 82.4 4.2 4.2 4.1 339.4 345.1 0.00 0.0000000 89.4
2021-06-11 20:30:00 82.6 6.4 10.2 82.6 82.6 4.4 4.4 4.1 338.8 340.0 0.00 0.0000000 89.3
2021-06-11 20:35:00 81.9 6.8 11.0 81.9 81.9 4.2 4.4 4.2 330.6 333.1 0.00 0.0000000 89.2
2021-06-11 20:40:00 81.1 7.1 11.5 81.1 81.1 5.1 5.1 4.3 1.4 337.1 0.00 0.0000000 89.0
2021-06-11 20:45:00 80.4 10.1 19.1 80.4 80.4 8.0 11.0 8.0 44.7 22.2 0.00 0.0000000 89.0
2021-06-11 20:50:00 79.3 10.7 19.5 79.3 79.3 6.3 8.3 7.1 32.6 34.1 0.00 0.0000000 88.8
2021-06-11 20:55:00 78.8 14.3 26.2 78.8 78.8 7.4 8.8 7.0 52.0 43.3 0.00 0.0000000 88.7
2021-06-11 21:00:00 79.0 15.7 28.5 79.0 79.0 8.8 11.3 8.3 60.0 53.9 0.00 0.0000000 88.6
2021-06-11 21:05:00 78.6 16.5 29.4 78.6 78.6 7.8 10.3 8.3 56.0 55.8 0.00 0.0000000 88.4
2021-06-11 21:10:00 77.7 17.0 29.5 77.7 77.7 6.0 7.4 6.1 58.3 48.1 0.00 0.0000000 88.3
2021-06-11 21:15:00 77.8 17.5 30.2 77.8 77.8 7.1 8.7 6.9 80.5 63.4 0.00 0.0000000 88.1
2021-06-11 21:20:00 78.2 17.4 30.5 78.2 78.2 7.1 8.5 6.6 76.3 75.3 0.00 0.0000000 88.0
2021-06-11 21:25:00 78.4 17.2 30.3 78.4 78.4 4.2 8.3 6.3 91.7 79.8 0.00 0.0000000 87.9
2021-06-11 21:30:00 78.4 17.2 30.3 78.4 78.4 4.9 9.0 6.3 82.9 78.2 0.00 0.0000000 87.7
2021-06-11 21:35:00 78.2 17.3 30.3 78.2 78.2 7.4 8.1 6.3 108.8 67.7 0.00 0.0000000 87.6
2021-06-11 21:40:00 78.2 17.4 30.4 78.2 78.2 5.8 10.1 6.6 94.0 78.6 0.00 0.0000000 87.4
2021-06-11 21:45:00 78.1 17.7 30.7 78.1 78.1 5.8 9.0 6.7 88.1 82.9 0.00 0.0000000 87.3
2021-06-11 21:50:00 77.7 18.0 30.8 77.7 77.7 3.7 8.5 5.0 66.8 82.7 0.00 0.0000000 87.2
2021-06-11 21:55:00 77.5 18.1 30.8 77.5 77.5 8.0 10.1 6.3 73.2 67.7 0.00 0.0000000 87.0
2021-06-11 22:00:00 77.3 18.5 31.2 77.3 77.3 5.8 8.5 6.2 66.2 68.7 0.00 0.0000000 86.9
2021-06-11 22:05:00 77.1 18.6 31.2 77.1 77.1 6.0 8.0 5.4 83.9 79.9 0.00 0.0000000 86.8
2021-06-11 22:10:00 77.1 18.8 31.4 77.1 77.1 10.1 10.6 6.4 83.7 72.4 0.00 0.0000000 86.6
2021-06-11 22:15:00 77.0 19.2 31.7 77.0 77.0 6.3 9.9 7.1 53.5 70.5 0.00 0.0000000 86.5
2021-06-11 22:20:00 76.4 19.6 31.9 76.4 76.4 5.5 7.8 5.5 81.6 69.5 0.00 0.0000000 86.3
2021-06-11 22:25:00 76.2 20.0 32.2 76.2 76.2 6.7 7.1 5.7 76.3 73.4 0.00 0.0000000 86.2
2021-06-11 22:30:00 76.0 20.4 32.5 76.0 76.0 5.3 7.8 5.9 90.7 81.7 0.00 0.0000000 86.1
2021-06-11 22:35:00 75.7 20.9 32.9 75.7 75.7 5.6 7.8 5.7 66.5 71.9 0.00 0.0000000 86.0
2021-06-11 22:40:00 75.4 21.3 33.1 75.4 75.4 6.0 8.5 6.3 65.0 73.8 0.00 0.0000000 85.9
2021-06-11 22:45:00 74.6 21.9 33.1 74.6 74.6 5.3 8.3 5.7 64.6 66.5 0.00 0.0000000 85.7
2021-06-11 22:50:00 74.2 22.4 33.3 74.2 74.2 4.6 9.7 6.2 54.8 66.2 0.00 0.0000000 85.6
2021-06-11 22:55:00 73.3 23.0 33.4 73.3 73.3 5.3 6.3 5.2 67.3 68.2 0.00 0.0000000 85.5
2021-06-11 23:00:00 72.5 23.6 33.3 72.5 72.5 4.2 6.7 5.1 64.7 61.8 0.00 0.0000000 85.4
2021-06-11 23:05:00 72.1 23.9 33.2 72.1 72.1 5.1 5.8 4.2 65.4 69.0 0.00 0.0000000 85.3
2021-06-11 23:10:00 72.2 24.0 33.4 72.2 72.2 5.8 7.6 6.1 64.2 60.5 0.00 0.0000000 85.2
2021-06-11 23:15:00 71.2 24.8 33.4 71.2 71.2 6.2 6.3 5.5 59.6 58.6 0.00 0.0000000 85.0
2021-06-11 23:20:00 70.4 25.3 33.2 70.4 70.4 4.0 5.1 4.4 70.6 61.9 0.00 0.0000000 84.9
2021-06-11 23:25:00 70.2 25.8 33.5 70.2 70.2 4.6 5.1 4.3 78.7 64.8 0.00 0.0000000 84.8
2021-06-11 23:30:00 69.8 26.1 33.5 69.8 69.8 3.8 4.9 4.2 72.2 63.4 0.00 0.0000000 84.7
2021-06-11 23:35:00 69.1 26.6 33.3 69.1 69.1 4.2 4.7 4.3 52.6 58.5 0.00 0.0000000 84.6
2021-06-11 23:40:00 67.6 27.7 33.0 67.6 67.6 4.4 4.7 4.4 64.5 54.3 0.00 0.0000000 84.5
2021-06-11 23:45:00 67.0 28.4 33.1 67.0 67.0 3.3 4.4 3.2 91.5 72.9 0.00 0.0000000 84.3
2021-06-11 23:50:00 67.1 28.5 33.4 67.1 67.1 4.6 4.6 3.1 64.4 69.4 0.00 0.0000000 84.2
2021-06-11 23:55:00 67.7 27.6 33.1 67.7 67.7 5.1 6.5 5.2 59.8 63.9 0.00 0.0000000 84.1
2021-06-12 00:00:00 66.8 28.2 32.8 66.8 66.8 4.2 5.3 4.7 64.7 60.6 0.00 0.0000000 84.0

Data is courtesy of the NM Climate Center. DO NOT USE IN LEGAL PROCEEDINGS.